罗盘
风向 的 风向 的 风向 到 风向 300° Flugplatz Osnabrück-Atterheide 9/27
风: 7 kt, 3 beaufort

6 kt

4 kt
改变
0 1.000 2.000 3.000 4.000 5.000
FEW 3.400 ft
SCT 4.600 ft
METAR EDDG 060950Z 30007KT 270V340 9999 FEW034 SCT046 17/08 Q1025 NOSIG

METAR Flugplatz Osnabrück-Atterheide

Flugplatz Osnabrück-Atterheide是Osnabrück,德国中的小机场。 该机场有一条跑道: 9/27.

这份报告是针对2022年7月6日 11:50 上午, 当地时间在Münster Osnabrück Airport进行的。

机场观察

风向为300°,速度为7 kt。 风向在270°和340°之间变化。

可见度为6¼ mi 或者更多。

有几云在3.400 ft的高度 和 疏云,零星散落的云朵在4.600 ft的高度。 没有观察到天花板。

温度和风寒是63 °F。 露点为46 °F,相对湿度为56%。 海平面上的气压为30,27 inHg (QNH)。

白天

今天,太阳从5:15 上午升起,在9:50 下午降落。 这适用于Flugplatz Osnabrück-Atterheide,世界夏令时可能有所不同。 当地时间与世界标准时间之间的时差为+2 小时。 夏令时目前正在进行中。

公司介绍

我们没有关于这个机场的公司信息。

体会

到Vliegles.nl去找飞行课程,跳伞和其他飞行体验。 浏览页面,了解Flugplatz Osnabrück-Atterheide附近所有可用的活动。 你也可以使用搜索功能来寻找你所在地附近的特定飞行课程、跳伞或其他飞行体验。

您会帮助我们保持Metar-Taf.com正常运行吗?
您的贡献有助于网站的进一步开发并支付费用。

没有更多广告

您是捐款5美元还是更多?然后,我们将永远不会再向您展示广告,这是我们永恒的感谢!
捐赠前先登录

跑道

Id 标题 侧风 逆风 侧风 %
9/27 090°-270° 4 kt 6 kt 50 %

逆风成分最大的方向会被突出显示,并用于横风计算。 这并不一定意味着这个方向在使用。

乌云

3.400 ft FEW 几云
4.600 ft SCT 疏云,零星散落的云朵

温度 & 天气

温度 63 °F
露点 46 °F
相对湿度 56%
Kp-index 1  

公司介绍

新增公司

下载我们的应用程序

在您的手机和平板电脑上轻松访问所有航空天气。
有许多网站上没有的功能,如离线支持和个人机场列表。

Studio Eveline

Benalmádena
España

我们和第三方通过cookies跟踪您在我们网站上的上网行为。如果您继续,我们认为您同意我们的cookie政策。 了解更多